Aspen (ASE/KASE)

Information

Location
Aspen, CO
Local Time
19:43 / 7:43 pm
GMT Time
02:43 / 2:43 am
Gates
Unassigned
No FAA reported delays
METAR KASE 170153Z COR 31003KT 10SM SCT015 OVC045 M02/M05 A3006 RMK AO2 SLP172 T10221050
TAF KASE 170202Z 1702/1724 01005KT P6SM BKN050 TEMPO 1702/1704 OVC015 FM170600 VRB03KT P6SM SCT100 FM171200 21003KT P6SM BKN070 FM171800 33003KT P6SM SCT100
  • No charts available